Auvergne, Arkansas
Current Conditions -  °F | °C
As of 8:56 AM on Saturday 25 Oct 2014 (Local Time) from KM19 Reporting Station
Clear Clear  
Wind Chill: 62°   Ceiling: Unl
Heat Index: 62°   Visibility: 9mi
Dew Point: 59°   Wind: 7mph
Humidity: 90%   Direction: 200°SSW
Pressure: 30.09"   Gusts: NA
Location:  35.5678°N, 91.2073°W
Report Text: KM19 251356Z AUTO 20006KT 9SM CLR 17/15 A3009 RMK AO2 T01660150 SLP189
Loading
Personal Weather Stations






























Interactive Weather Map New forecast layout! Learn more

10-Day Weather Forecast

Advertisements
Track Severe Weather on mobile